Time,TemperatureF,DewpointF,PressureIn,WindDirection,WindDirectionDegrees,WindSpeedMPH,WindSpeedGustMPH,Humidity,HourlyPrecipIn,Conditions,Clouds,dailyrainin,SoftwareType,DateUTC
2013-02-17 00:02:00,16.0,9.0,-100.00,North,350,13.0,19.0,68,0.00,,,-99.99,,2013-02-17 05:02:00,
2013-02-17 00:12:00,16.0,10.0,-100.00,NNW,348,10.0,19.0,71,0.00,,,-99.99,,2013-02-17 05:12:00,
2013-02-17 00:22:00,16.0,10.0,-100.00,North,358,11.0,19.0,71,0.00,,,-99.99,,2013-02-17 05:22:00,
2013-02-17 00:33:00,16.0,9.0,-100.00,North,1,11.0,19.0,72,0.00,,,-99.99,,2013-02-17 05:33:00,
2013-02-17 00:42:00,18.0,12.0,-100.00,NE,39,12.0,19.0,76,0.00,,,-99.99,,2013-02-17 05:42:00,
2013-02-17 00:52:00,18.0,14.0,-100.00,North,355,11.0,19.0,78,0.00,,,-99.99,,2013-02-17 05:52:00,
2013-02-17 01:02:00,18.0,14.0,-100.00,NE,53,11.0,19.0,80,0.00,,,-99.99,,2013-02-17 06:02:00,
2013-02-17 01:11:00,18.0,14.0,-100.00,North,355,12.0,19.0,80,0.00,,,-99.99,,2013-02-17 06:11:00,
2013-02-17 01:21:00,18.0,14.0,-100.00,North,352,11.0,19.0,80,0.00,,,-99.99,,2013-02-17 06:21:00,
2013-02-17 01:32:00,17.0,14.0,-100.00,NNE,16,11.0,19.0,80,0.00,,,-99.99,,2013-02-17 06:32:00,
2013-02-17 01:42:00,18.0,14.0,-100.00,NNE,16,11.0,19.0,80,0.00,,,-99.99,,2013-02-17 06:42:00,
2013-02-17 01:51:00,17.0,14.0,-100.00,North,352,12.0,19.0,80,0.00,,,-99.99,,2013-02-17 06:51:00,
2013-02-17 02:01:00,17.0,12.0,-100.00,NNW,344,12.0,19.0,80,0.00,,,-99.99,,2013-02-17 07:01:00,
2013-02-17 02:11:00,15.0,10.0,-100.00,NNW,347,12.0,19.0,77,0.00,,,-99.99,,2013-02-17 07:11:00,
2013-02-17 02:21:00,15.0,10.0,-100.00,North,351,10.0,19.0,77,0.00,,,-99.99,,2013-02-17 07:21:00,
2013-02-17 02:32:00,15.0,9.0,-100.00,North,355,13.0,19.0,75,0.00,,,-99.99,,2013-02-17 07:32:00,
2013-02-17 02:42:00,14.0,9.0,-100.00,North,0,12.0,19.0,75,0.00,,,-99.99,,2013-02-17 07:42:00,
2013-02-17 02:51:00,14.0,9.0,-100.00,North,354,11.0,19.0,75,0.00,,,-99.99,,2013-02-17 07:51:00,
2013-02-17 03:01:00,14.0,9.0,-100.00,NNW,347,11.0,19.0,76,0.00,,,-99.99,,2013-02-17 08:01:00,
2013-02-17 03:11:00,14.0,9.0,-100.00,North,352,11.0,19.0,76,0.00,,,-99.99,,2013-02-17 08:11:00,
2013-02-17 03:22:00,14.0,9.0,-100.00,North,354,9.0,19.0,77,0.00,,,-99.99,,2013-02-17 08:22:00,
2013-02-17 03:32:00,13.0,9.0,-100.00,North,352,9.0,19.0,77,0.00,,,-99.99,,2013-02-17 08:32:00,
2013-02-17 03:42:00,13.0,9.0,-100.00,North,5,8.0,19.0,78,0.00,,,-99.99,,2013-02-17 08:42:00,
2013-02-17 03:52:00,13.0,9.0,-100.00,North,351,9.0,19.0,77,0.00,,,-99.99,,2013-02-17 08:52:00,
2013-02-17 04:02:00,13.0,9.0,-100.00,North,355,7.0,19.0,78,0.00,,,-99.99,,2013-02-17 09:02:00,
2013-02-17 04:11:00,13.0,9.0,-100.00,NNW,345,7.0,19.0,78,0.00,,,-99.99,,2013-02-17 09:11:00,
2013-02-17 04:21:00,13.0,9.0,-100.00,North,351,7.0,19.0,80,0.00,,,-99.99,,2013-02-17 09:21:00,
2013-02-17 04:32:00,12.0,9.0,-100.00,North,350,7.0,19.0,80,0.00,,,-99.99,,2013-02-17 09:32:00,
2013-02-17 04:42:00,12.0,7.0,-100.00,NNW,344,6.0,19.0,80,0.00,,,-99.99,,2013-02-17 09:42:00,
2013-02-17 04:51:00,12.0,7.0,-100.00,NNW,345,6.0,19.0,80,0.00,,,-99.99,,2013-02-17 09:51:00,
2013-02-17 05:01:00,12.0,7.0,-100.00,NNW,343,6.0,19.0,80,0.00,,,-99.99,,2013-02-17 10:01:00,
2013-02-17 05:11:00,12.0,9.0,-100.00,NNW,347,6.0,19.0,81,0.00,,,-99.99,,2013-02-17 10:11:00,
2013-02-17 05:21:00,11.0,9.0,-100.00,NNW,344,6.0,19.0,81,0.00,,,-99.99,,2013-02-17 10:21:00,
2013-02-17 05:32:00,11.0,7.0,-100.00,North,350,6.0,19.0,81,0.00,,,-99.99,,2013-02-17 10:32:00,
2013-02-17 05:42:00,12.0,9.0,-100.00,NNW,345,6.0,19.0,81,0.00,,,-99.99,,2013-02-17 10:42:00,
2013-02-17 05:52:00,12.0,9.0,-100.00,North,9,6.0,19.0,82,0.00,,,-99.99,,2013-02-17 10:52:00,
2013-02-17 06:01:00,13.0,9.0,-100.00,NNW,348,7.0,19.0,82,0.00,,,-99.99,,2013-02-17 11:01:00,
2013-02-17 06:11:00,13.0,10.0,-100.00,NNE,12,8.0,19.0,82,0.00,,,-99.99,,2013-02-17 11:11:00,
2013-02-17 06:22:00,13.0,10.0,-100.00,NNW,341,9.0,19.0,84,0.00,,,-99.99,,2013-02-17 11:22:00,
2013-02-17 06:32:00,13.0,10.0,-100.00,North,357,9.0,19.0,84,0.00,,,-99.99,,2013-02-17 11:32:00,
2013-02-17 06:42:00,13.0,10.0,-100.00,NNE,22,9.0,19.0,84,0.00,,,-99.99,,2013-02-17 11:42:00,
2013-02-17 06:52:00,14.0,10.0,-100.00,NNW,347,11.0,19.0,84,0.00,,,-99.99,,2013-02-17 11:52:00,
2013-02-17 07:03:00,13.0,10.0,-100.00,NNW,334,11.0,19.0,84,0.00,,,-99.99,,2013-02-17 12:03:00,
2013-02-17 07:11:00,14.0,10.0,-100.00,NNE,14,11.0,19.0,84,0.00,,,-99.99,,2013-02-17 12:11:00,
2013-02-17 07:22:00,14.0,12.0,-100.00,North,8,11.0,19.0,84,0.00,,,-99.99,,2013-02-17 12:22:00,
2013-02-17 07:32:00,14.0,10.0,-100.00,North,1,9.0,19.0,84,0.00,,,-99.99,,2013-02-17 12:32:00,
2013-02-17 07:42:00,13.0,10.0,-100.00,NNW,341,8.0,19.0,85,0.00,,,-99.99,,2013-02-17 12:42:00,
2013-02-17 07:52:00,14.0,12.0,-100.00,NNW,337,9.0,19.0,85,0.00,,,-99.99,,2013-02-17 12:52:00,
2013-02-17 08:02:00,14.0,10.0,-100.00,North,354,9.0,19.0,85,0.00,,,-99.99,,2013-02-17 13:02:00,
2013-02-17 08:12:00,13.0,10.0,-100.00,North,354,10.0,19.0,85,0.00,,,-99.99,,2013-02-17 13:12:00,
2013-02-17 08:22:00,13.0,10.0,-100.00,NNW,347,9.0,19.0,85,0.00,,,-99.99,,2013-02-17 13:22:00,
2013-02-17 08:32:00,14.0,10.0,-100.00,North,350,11.0,19.0,85,0.00,,,-99.99,,2013-02-17 13:32:00,
2013-02-17 08:42:00,14.0,10.0,-100.00,North,352,9.0,19.0,85,0.00,,,-99.99,,2013-02-17 13:42:00,
2013-02-17 08:51:00,14.0,10.0,-100.00,North,357,11.0,19.0,85,0.00,,,-99.99,,2013-02-17 13:51:00,
2013-02-17 09:01:00,14.0,12.0,-100.00,North,352,10.0,19.0,85,0.00,,,-99.99,,2013-02-17 14:01:00,
2013-02-17 09:11:00,14.0,12.0,-100.00,WNW,292,11.0,19.0,85,0.00,,,-99.99,,2013-02-17 14:11:00,
2013-02-17 09:22:00,14.0,12.0,-100.00,North,354,11.0,19.0,85,0.00,,,-99.99,,2013-02-17 14:22:00,
2013-02-17 09:32:00,14.0,10.0,-100.00,NNE,16,12.0,19.0,85,0.00,,,-99.99,,2013-02-17 14:32:00,
2013-02-17 09:42:00,14.0,10.0,-100.00,NNE,12,12.0,19.0,85,0.00,,,-99.99,,2013-02-17 14:42:00,
2013-02-17 09:52:00,15.0,12.0,-100.00,North,9,12.0,19.0,85,0.00,,,-99.99,,2013-02-17 14:52:00,
2013-02-17 10:02:00,15.0,12.0,-100.00,North,354,11.0,19.0,85,0.00,,,-99.99,,2013-02-17 15:02:00,
2013-02-17 10:11:00,15.0,12.0,-100.00,North,357,11.0,19.0,84,0.00,,,-99.99,,2013-02-17 15:11:00,
2013-02-17 10:22:00,15.0,12.0,-100.00,NNE,22,11.0,19.0,84,0.00,,,-99.99,,2013-02-17 15:22:00,
2013-02-17 10:32:00,15.0,12.0,-100.00,North,1,11.0,19.0,82,0.00,,,-99.99,,2013-02-17 15:32:00,
2013-02-17 10:42:00,15.0,12.0,-100.00,NNE,19,9.0,19.0,82,0.00,,,-99.99,,2013-02-17 15:42:00,
2013-02-17 10:52:00,16.0,12.0,-100.00,NNE,14,9.0,19.0,81,0.00,,,-99.99,,2013-02-17 15:52:00,
2013-02-17 11:01:00,19.0,14.0,-100.00,NE,38,8.0,19.0,81,0.00,,,-99.99,,2013-02-17 16:01:00,
2013-02-17 11:12:00,17.0,12.0,-100.00,North,0,7.0,19.0,78,0.00,,,-99.99,,2013-02-17 16:12:00,
2013-02-17 11:22:00,17.0,12.0,-100.00,North,8,7.0,19.0,77,0.00,,,-99.99,,2013-02-17 16:22:00,
2013-02-17 11:32:00,20.0,16.0,-100.00,NNE,18,7.0,19.0,77,0.00,,,-99.99,,2013-02-17 16:32:00,
2013-02-17 11:42:00,18.0,12.0,-100.00,NNE,22,9.0,19.0,75,0.00,,,-99.99,,2013-02-17 16:42:00,
2013-02-17 11:52:00,20.0,14.0,-100.00,NNW,343,8.0,19.0,76,0.00,,,-99.99,,2013-02-17 16:52:00,
2013-02-17 12:02:00,18.0,12.0,-100.00,NNW,334,9.0,19.0,73,0.00,,,-99.99,,2013-02-17 17:02:00,
2013-02-17 12:11:00,18.0,12.0,-100.00,NNW,348,9.0,19.0,73,0.00,,,-99.99,,2013-02-17 17:11:00,
2013-02-17 12:21:00,20.0,10.0,-100.00,ENE,67,7.0,19.0,66,0.00,,,-99.99,,2013-02-17 17:21:00,
2013-02-17 12:32:00,19.0,12.0,-100.00,NNW,338,8.0,19.0,69,0.00,,,-99.99,,2013-02-17 17:32:00,
2013-02-17 12:42:00,21.0,16.0,-100.00,NNW,345,9.0,19.0,75,0.00,,,-99.99,,2013-02-17 17:42:00,
2013-02-17 12:52:00,19.0,10.0,-100.00,NNW,344,9.0,19.0,67,0.00,,,-99.99,,2013-02-17 17:52:00,
2013-02-17 13:02:00,20.0,12.0,-100.00,NW,317,8.0,19.0,67,0.00,,,-99.99,,2013-02-17 18:02:00,
2013-02-17 13:11:00,20.0,10.0,-100.00,NNW,337,11.0,19.0,64,0.00,,,-99.99,,2013-02-17 18:11:00,
2013-02-17 13:22:00,20.0,10.0,-100.00,NNW,347,11.0,19.0,62,0.00,,,-99.99,,2013-02-17 18:22:00,
2013-02-17 13:33:00,20.0,10.0,-100.00,North,357,9.0,19.0,63,0.00,,,-99.99,,2013-02-17 18:33:00,
2013-02-17 13:42:00,20.0,10.0,-100.00,NNW,343,11.0,19.0,66,0.00,,,-99.99,,2013-02-17 18:42:00,
2013-02-17 13:52:00,19.0,9.0,-100.00,NNW,341,11.0,19.0,62,0.00,,,-99.99,,2013-02-17 18:52:00,
2013-02-17 14:02:00,20.0,10.0,-100.00,NNW,344,9.0,19.0,63,0.00,,,-99.99,,2013-02-17 19:02:00,
2013-02-17 14:11:00,19.0,9.0,-100.00,North,0,8.0,19.0,62,0.00,,,-99.99,,2013-02-17 19:11:00,
2013-02-17 14:22:00,20.0,9.0,-100.00,NNW,331,9.0,19.0,59,0.00,,,-99.99,,2013-02-17 19:22:00,
2013-02-17 14:32:00,20.0,9.0,-100.00,NNW,338,9.0,19.0,59,0.00,,,-99.99,,2013-02-17 19:32:00,
2013-02-17 14:42:00,20.0,10.0,-100.00,NNE,28,7.0,19.0,62,0.00,,,-99.99,,2013-02-17 19:42:00,
2013-02-17 14:52:00,22.0,12.0,-100.00,North,1,10.0,19.0,62,0.00,,,-99.99,,2013-02-17 19:52:00,
2013-02-17 15:02:00,21.0,10.0,-100.00,North,8,9.0,19.0,62,0.00,,,-99.99,,2013-02-17 20:02:00,
2013-02-17 15:11:00,22.0,10.0,-100.00,NNW,347,9.0,19.0,59,0.00,,,-99.99,,2013-02-17 20:11:00,
2013-02-17 15:22:00,21.0,9.0,-100.00,NNE,24,9.0,19.0,58,0.00,,,-99.99,,2013-02-17 20:22:00,
2013-02-17 15:32:00,23.0,12.0,-100.00,NNW,338,7.0,19.0,60,0.00,,,-99.99,,2013-02-17 20:32:00,
2013-02-17 15:42:00,21.0,9.0,-100.00,NNW,333,7.0,19.0,58,0.00,,,-99.99,,2013-02-17 20:42:00,
2013-02-17 15:52:00,21.0,9.0,-100.00,NNW,343,6.0,19.0,56,0.00,,,-99.99,,2013-02-17 20:52:00,
2013-02-17 16:02:00,21.0,9.0,-100.00,NNW,338,9.0,19.0,56,0.00,,,-99.99,,2013-02-17 21:02:00,
2013-02-17 16:11:00,23.0,10.0,-100.00,NNW,348,8.0,19.0,56,0.00,,,-99.99,,2013-02-17 21:11:00,
2013-02-17 16:21:00,21.0,9.0,-100.00,North,351,9.0,19.0,55,0.00,,,-99.99,,2013-02-17 21:21:00,
2013-02-17 16:32:00,22.0,9.0,-100.00,NNW,340,10.0,19.0,53,0.00,,,-99.99,,2013-02-17 21:32:00,
2013-02-17 16:42:00,22.0,9.0,-100.00,North,350,8.0,19.0,53,0.00,,,-99.99,,2013-02-17 21:42:00,
2013-02-17 16:52:00,22.0,9.0,-100.00,NNW,344,9.0,19.0,54,0.00,,,-99.99,,2013-02-17 21:52:00,
2013-02-17 17:01:00,22.0,7.0,-100.00,North,358,12.0,19.0,51,0.00,,,-99.99,,2013-02-17 22:01:00,
2013-02-17 17:12:00,22.0,7.0,-100.00,NNW,327,11.0,19.0,50,0.00,,,-99.99,,2013-02-17 22:12:00,
2013-02-17 17:22:00,22.0,7.0,-100.00,NNW,343,9.0,19.0,50,0.00,,,-99.99,,2013-02-17 22:22:00,
2013-02-17 17:32:00,22.0,7.0,-100.00,North,351,7.0,19.0,50,0.00,,,-99.99,,2013-02-17 22:32:00,
2013-02-17 17:42:00,22.0,9.0,-100.00,North,2,8.0,19.0,53,0.00,,,-99.99,,2013-02-17 22:42:00,
2013-02-17 17:52:00,22.0,9.0,-100.00,NNW,337,7.0,19.0,53,0.00,,,-99.99,,2013-02-17 22:52:00,
2013-02-17 18:02:00,22.0,9.0,-100.00,NNW,341,6.0,19.0,51,0.00,,,-99.99,,2013-02-17 23:02:00,
2013-02-17 18:11:00,24.0,10.0,-100.00,NNW,331,6.0,19.0,54,0.00,,,-99.99,,2013-02-17 23:11:00,
2013-02-17 18:21:00,24.0,10.0,-100.00,NNW,334,6.0,19.0,54,0.00,,,-99.99,,2013-02-17 23:21:00,
2013-02-17 18:32:00,24.0,10.0,-100.00,NNW,328,5.0,19.0,54,0.00,,,-99.99,,2013-02-17 23:32:00,
2013-02-17 18:42:00,24.0,10.0,-100.00,NW,326,6.0,19.0,54,0.00,,,-99.99,,2013-02-17 23:42:00,
2013-02-17 18:52:00,23.0,10.0,-100.00,NW,326,3.0,19.0,56,0.00,,,-99.99,,2013-02-17 23:52:00,
2013-02-17 19:02:00,23.0,10.0,-100.00,NW,310,2.0,19.0,56,0.00,,,-99.99,,2013-02-18 00:02:00,
2013-02-17 19:12:00,23.0,12.0,-100.00,NW,314,2.0,19.0,58,0.00,,,-99.99,,2013-02-18 00:12:00,
2013-02-17 19:22:00,23.0,12.0,-100.00,WNW,286,2.0,19.0,58,0.00,,,-99.99,,2013-02-18 00:22:00,
2013-02-17 19:32:00,22.0,10.0,-100.00,West,275,2.0,19.0,60,0.00,,,-99.99,,2013-02-18 00:32:00,
2013-02-17 19:42:00,20.0,9.0,-100.00,WNW,289,2.0,19.0,59,0.00,,,-99.99,,2013-02-18 00:42:00,
2013-02-17 19:52:00,23.0,12.0,-100.00,WNW,292,2.0,19.0,59,0.00,,,-99.99,,2013-02-18 00:52:00,
2013-02-17 20:01:00,21.0,9.0,-100.00,WNW,289,0.0,19.0,58,0.00,,,-99.99,,2013-02-18 01:01:00,
2013-02-17 20:12:00,21.0,10.0,-100.00,West,264,1.0,19.0,60,0.00,,,-99.99,,2013-02-18 01:12:00,
2013-02-17 20:21:00,20.0,10.0,-100.00,West,262,1.0,19.0,62,0.00,,,-99.99,,2013-02-18 01:21:00,
2013-02-17 20:32:00,20.0,10.0,-100.00,WNW,286,0.0,19.0,62,0.00,,,-99.99,,2013-02-18 01:32:00,
2013-02-17 20:42:00,20.0,10.0,-100.00,WSW,241,2.0,19.0,63,0.00,,,-99.99,,2013-02-18 01:42:00,
2013-02-17 20:51:00,20.0,10.0,-100.00,WSW,245,2.0,19.0,64,0.00,,,-99.99,,2013-02-18 01:51:00,
2013-02-17 21:02:00,20.0,10.0,-100.00,SW,227,2.0,19.0,64,0.00,,,-99.99,,2013-02-18 02:02:00,
2013-02-17 21:11:00,20.0,12.0,-100.00,WSW,237,2.0,19.0,66,0.00,,,-99.99,,2013-02-18 02:11:00,
2013-02-17 21:22:00,20.0,12.0,-100.00,SW,230,1.0,19.0,66,0.00,,,-99.99,,2013-02-18 02:22:00,
2013-02-17 21:32:00,19.0,10.0,-100.00,SSW,194,1.0,19.0,68,0.00,,,-99.99,,2013-02-18 02:32:00,
2013-02-17 21:42:00,19.0,10.0,-100.00,SSW,204,2.0,19.0,69,0.00,,,-99.99,,2013-02-18 02:42:00,
2013-02-17 21:52:00,19.0,10.0,-100.00,SSW,208,3.0,19.0,69,0.00,,,-99.99,,2013-02-18 02:52:00,
2013-02-17 22:02:00,19.0,12.0,-100.00,SW,214,4.0,19.0,71,0.00,,,-99.99,,2013-02-18 03:02:00,
2013-02-17 22:11:00,18.0,12.0,-100.00,SSW,208,4.0,4.0,71,0.00,,,-99.99,,2013-02-18 03:11:00,
2013-02-17 22:22:00,18.0,12.0,-100.00,SSW,211,3.0,4.0,72,0.00,,,-99.99,,2013-02-18 03:22:00,
2013-02-17 22:32:00,18.0,10.0,-100.00,SSW,196,3.0,4.0,71,0.00,,,-99.99,,2013-02-18 03:32:00,
2013-02-17 22:42:00,18.0,10.0,-100.00,SSW,208,4.0,4.0,71,0.00,,,-99.99,,2013-02-18 03:42:00,
2013-02-17 22:52:00,18.0,10.0,-100.00,SSW,200,4.0,4.0,71,0.00,,,-99.99,,2013-02-18 03:52:00,
2013-02-17 23:01:00,17.0,10.0,-100.00,SSW,200,5.0,6.0,72,0.00,,,-99.99,,2013-02-18 04:01:00,
2013-02-17 23:11:00,17.0,10.0,-100.00,SSW,211,5.0,6.0,73,0.00,,,-99.99,,2013-02-18 04:11:00,
2013-02-17 23:21:00,17.0,10.0,-100.00,SSW,204,4.0,6.0,73,0.00,,,-99.99,,2013-02-18 04:21:00,
2013-02-17 23:32:00,17.0,10.0,-100.00,SSW,203,5.0,6.0,72,0.00,,,-99.99,,2013-02-18 04:32:00,
2013-02-17 23:42:00,17.0,10.0,-100.00,SSW,206,6.0,6.0,73,0.00,,,-99.99,,2013-02-18 04:42:00,
2013-02-17 23:52:00,17.0,10.0,-100.00,SSW,200,4.0,6.0,73,0.00,,,-99.99,,2013-02-18 04:52:00,